Time;durP1;ratioP1;P1;durP2;ratioP2;P2;SDS_P1;SDS_P2;PMS_P1;PMS_P2;Temp;Humidity;BMP_temperature;BMP_pressure;BME280_temperature;BME280_humidity;BME280_pressure;Samples;Min_cycle;Max_cycle;Signal;HPM_P1;HPM_P2
2024/01/13 00:02:19;;;;;;;8.88;4.10;;;;;;;;;;5071608;28;20481;-71
2024/01/13 00:04:45;;;;;;;11.75;5.03;;;;;;;;;;5071362;28;20087;-71
2024/01/13 00:07:11;;;;;;;11.25;5.15;;;;;;;;;;5073170;28;20082;-71
2024/01/13 00:09:37;;;;;;;7.55;3.90;;;;;;;;;;5071581;28;20072;-71
2024/01/13 00:12:03;;;;;;;8.52;4.65;;;;;;;;;;5071566;28;20133;-71
2024/01/13 00:14:29;;;;;;;10.45;4.90;;;;;;;;;;5071462;28;20074;-71
2024/01/13 00:16:55;;;;;;;9.68;4.35;;;;;;;;;;5072710;28;20045;-71
2024/01/13 00:19:21;;;;;;;8.60;4.05;;;;;;;;;;5071491;28;20048;-71
2024/01/13 00:21:47;;;;;;;8.55;4.53;;;;;;;;;;5071485;28;20048;-71
2024/01/13 00:24:13;;;;;;;5.47;3.33;;;;;;;;;;5072814;28;20098;-71
2024/01/13 00:26:39;;;;;;;6.65;4.07;;;;;;;;;;5071408;28;20037;-71
2024/01/13 00:29:06;;;;;;;5.25;2.95;;;;;;;;;;5071664;28;20105;-71
2024/01/13 00:31:31;;;;;;;6.85;2.90;;;;;;;;;;5072891;28;20032;-71
2024/01/13 00:33:57;;;;;;;6.70;3.20;;;;;;;;;;5072775;28;20041;-71
2024/01/13 00:36:23;;;;;;;8.52;3.78;;;;;;;;;;5072562;28;20123;-71
2024/01/13 00:38:49;;;;;;;10.57;3.25;;;;;;;;;;5073017;28;20409;-71
2024/01/13 00:41:15;;;;;;;9.63;3.35;;;;;;;;;;5075110;28;20052;-71
2024/01/13 00:43:41;;;;;;;5.63;3.10;;;;;;;;;;5074897;28;20048;-71
2024/01/13 00:46:07;;;;;;;8.13;2.88;;;;;;;;;;5076494;28;20039;-71
2024/01/13 00:48:36;;;;;;;7.22;2.78;;;;;;;;;;5076120;28;20383;-71
2024/01/13 00:51:03;;;;;;;5.93;2.47;;;;;;;;;;5076100;28;20501;-71
2024/01/13 00:53:29;;;;;;;7.43;2.85;;;;;;;;;;5074777;28;20090;-71
2024/01/13 00:55:55;;;;;;;4.05;2.17;;;;;;;;;;5074792;28;20080;-71
2024/01/13 00:58:21;;;;;;;5.07;2.60;;;;;;;;;;5076311;28;20045;-71
2024/01/13 01:00:47;;;;;;;6.13;2.33;;;;;;;;;;5076264;28;20056;-71
2024/01/13 01:03:13;;;;;;;7.88;2.42;;;;;;;;;;5075641;28;20511;-71
2024/01/13 01:05:39;;;;;;;6.72;2.40;;;;;;;;;;5074640;28;20112;-71
2024/01/13 01:08:05;;;;;;;6.95;2.20;;;;;;;;;;5074627;28;20037;-71
2024/01/13 01:10:31;;;;;;;10.68;2.70;;;;;;;;;;5076100;28;20036;-71
2024/01/13 01:12:57;;;;;;;3.67;2.15;;;;;;;;;;5075723;28;20440;-71
2024/01/13 01:15:23;;;;;;;6.82;2.45;;;;;;;;;;5075952;28;20115;-71
2024/01/13 01:17:49;;;;;;;6.07;2.22;;;;;;;;;;5075965;28;20036;-71
2024/01/13 01:20:15;;;;;;;6.50;2.58;;;;;;;;;;5075881;28;20036;-71
2024/01/13 01:22:41;;;;;;;6.55;2.50;;;;;;;;;;5075875;28;20036;-71
2024/01/13 01:25:07;;;;;;;5.07;2.08;;;;;;;;;;5074217;28;20044;-71
2024/01/13 01:27:33;;;;;;;6.65;3.13;;;;;;;;;;5074575;28;20062;-71
2024/01/13 01:29:59;;;;;;;9.98;3.53;;;;;;;;;;5074246;28;20493;-71
2024/01/13 01:32:25;;;;;;;4.53;1.85;;;;;;;;;;5075739;28;20111;-71
2024/01/13 01:34:51;;;;;;;7.35;2.53;;;;;;;;;;5074103;28;20044;-71
2024/01/13 01:37:17;;;;;;;5.30;2.33;;;;;;;;;;5075610;28;20094;-71
2024/01/13 01:39:43;;;;;;;7.75;2.88;;;;;;;;;;5074048;28;20508;-71
2024/01/13 01:42:09;;;;;;;5.03;2.40;;;;;;;;;;5074034;28;20056;-71
2024/01/13 01:44:35;;;;;;;8.55;2.80;;;;;;;;;;5074174;28;20119;-71
2024/01/13 01:47:03;;;;;;;9.45;2.95;;;;;;;;;;5074154;28;20044;-71
2024/01/13 01:49:29;;;;;;;6.00;2.20;;;;;;;;;;5074066;28;20497;-71
2024/01/13 01:51:55;;;;;;;7.65;2.80;;;;;;;;;;5073776;28;20040;-71
2024/01/13 01:54:21;;;;;;;8.55;2.80;;;;;;;;;;5073956;28;20040;-71
2024/01/13 01:56:47;;;;;;;9.98;2.70;;;;;;;;;;5075478;28;20512;-71
2024/01/13 01:59:13;;;;;;;7.20;2.67;;;;;;;;;;5075225;28;20119;-71
2024/01/13 02:01:39;;;;;;;5.00;2.78;;;;;;;;;;5073634;28;20051;-71
2024/01/13 02:04:05;;;;;;;7.57;2.78;;;;;;;;;;5073342;28;20124;-71
2024/01/13 02:06:31;;;;;;;7.47;2.83;;;;;;;;;;5073795;28;20043;-71
2024/01/13 02:08:58;;;;;;;6.30;2.80;;;;;;;;;;5073467;28;20516;-71
2024/01/13 02:11:24;;;;;;;5.88;2.65;;;;;;;;;;5074936;28;20052;-71
2024/01/13 02:13:50;;;;;;;7.85;3.20;;;;;;;;;;5074777;28;20050;-71
2024/01/13 02:16:16;;;;;;;7.60;3.10;;;;;;;;;;5073318;28;20079;-71
2024/01/13 02:18:42;;;;;;;8.30;3.28;;;;;;;;;;5073549;28;20055;-71
2024/01/13 02:21:09;;;;;;;5.65;2.85;;;;;;;;;;5074748;28;20452;-71
2024/01/13 02:23:34;;;;;;;6.07;2.90;;;;;;;;;;5072998;28;20047;-71
2024/01/13 02:26:01;;;;;;;6.20;3.47;;;;;;;;;;5073125;28;20036;-72
2024/01/13 02:28:27;;;;;;;8.00;3.90;;;;;;;;;;5074608;28;20120;-71
2024/01/13 02:30:53;;;;;;;9.45;3.70;;;;;;;;;;5074546;28;20470;-71
2024/01/13 02:33:19;;;;;;;8.50;3.15;;;;;;;;;;5072899;28;20044;-71
2024/01/13 02:35:45;;;;;;;8.43;3.40;;;;;;;;;;5073477;28;20089;-71
2024/01/13 02:38:11;;;;;;;7.60;3.13;;;;;;;;;;5074729;28;20547;-71
2024/01/13 02:40:37;;;;;;;7.68;3.38;;;;;;;;;;5072815;28;20040;-71
2024/01/13 02:43:03;;;;;;;10.25;3.53;;;;;;;;;;5074184;28;20037;-71
2024/01/13 02:45:29;;;;;;;7.68;3.83;;;;;;;;;;5072644;28;20489;-71
2024/01/13 02:48:03;;;;;;;8.90;3.33;;;;;;;;;;5072664;28;20070;-71
2024/01/13 02:50:29;;;;;;;7.93;3.10;;;;;;;;;;5072617;28;20489;-71
2024/01/13 02:52:55;;;;;;;5.43;3.03;;;;;;;;;;5074112;28;20043;-71
2024/01/13 02:55:21;;;;;;;9.70;3.60;;;;;;;;;;5072752;28;20033;-71
2024/01/13 02:57:47;;;;;;;6.03;3.58;;;;;;;;;;5073994;28;20448;-71
2024/01/13 03:00:13;;;;;;;8.80;3.55;;;;;;;;;;5072466;28;20040;-71
2024/01/13 03:02:39;;;;;;;10.07;3.83;;;;;;;;;;5071834;28;20119;-71
2024/01/13 03:05:09;;;;;;;6.60;4.00;;;;;;;;;;5073340;28;20055;-71
2024/01/13 03:07:35;;;;;;;9.88;3.55;;;;;;;;;;5072313;28;20052;-71
2024/01/13 03:10:01;;;;;;;10.68;3.42;;;;;;;;;;5072540;28;20044;-71
2024/01/13 03:12:27;;;;;;;8.07;3.75;;;;;;;;;;5073741;28;20045;-71
2024/01/13 03:14:53;;;;;;;8.57;4.05;;;;;;;;;;5072392;28;20046;-71
2024/01/13 03:17:19;;;;;;;10.07;3.38;;;;;;;;;;5073695;28;20488;-71
2024/01/13 03:19:45;;;;;;;7.15;3.80;;;;;;;;;;5073692;28;20101;-71
2024/01/13 03:22:11;;;;;;;7.60;3.97;;;;;;;;;;5072122;28;20048;-71
2024/01/13 03:24:37;;;;;;;7.57;3.67;;;;;;;;;;5071992;28;20045;-71
2024/01/13 03:27:03;;;;;;;6.88;3.33;;;;;;;;;;5073534;28;20166;-71
2024/01/13 03:29:29;;;;;;;7.97;4.40;;;;;;;;;;5072023;28;20075;-71
2024/01/13 03:31:55;;;;;;;6.82;3.90;;;;;;;;;;5072272;28;20080;-71
2024/01/13 03:34:21;;;;;;;9.18;3.53;;;;;;;;;;5071879;28;20521;-71
2024/01/13 03:36:47;;;;;;;5.78;3.28;;;;;;;;;;5072496;28;20044;-71
2024/01/13 03:39:13;;;;;;;10.13;4.05;;;;;;;;;;5072122;28;20051;-71
2024/01/13 03:41:39;;;;;;;6.25;3.33;;;;;;;;;;5073414;28;20040;-71
2024/01/13 03:44:05;;;;;;;7.10;3.50;;;;;;;;;;5071696;28;20386;-71
2024/01/13 03:46:31;;;;;;;6.93;3.50;;;;;;;;;;5071824;28;20048;-71
2024/01/13 03:48:57;;;;;;;10.80;4.10;;;;;;;;;;5071990;28;20040;-71
2024/01/13 03:51:23;;;;;;;9.70;3.30;;;;;;;;;;5071785;28;20047;-71
2024/01/13 03:53:49;;;;;;;8.10;3.42;;;;;;;;;;5071682;28;20058;-71
2024/01/13 03:56:15;;;;;;;6.72;3.33;;;;;;;;;;5071981;28;20097;-71
2024/01/13 03:58:41;;;;;;;8.45;3.20;;;;;;;;;;5071692;28;20497;-71
2024/01/13 04:01:08;;;;;;;10.60;3.40;;;;;;;;;;5071894;28;20045;-71
2024/01/13 04:03:34;;;;;;;11.50;3.63;;;;;;;;;;5071642;28;20051;-71
2024/01/13 04:06:03;;;;;;;9.55;3.70;;;;;;;;;;5071628;28;20037;-71
2024/01/13 04:08:29;;;;;;;10.32;3.75;;;;;;;;;;5073116;28;20033;-71
2024/01/13 04:10:55;;;;;;;11.43;3.22;;;;;;;;;;5071606;28;20094;-71
2024/01/13 04:13:21;;;;;;;9.68;3.63;;;;;;;;;;5071759;28;20051;-71
2024/01/13 04:15:47;;;;;;;8.60;3.45;;;;;;;;;;5058710;28;20501;-71
2024/01/13 04:18:13;;;;;;;6.15;3.00;;;;;;;;;;5075586;28;20036;-71
2024/01/13 04:20:39;;;;;;;9.63;3.47;;;;;;;;;;5077073;28;20063;-71
2024/01/13 04:23:05;;;;;;;8.95;3.40;;;;;;;;;;5076596;28;20115;-71
2024/01/13 04:25:31;;;;;;;8.55;3.03;;;;;;;;;;5075390;28;20044;-71
2024/01/13 04:28:00;;;;;;;8.30;3.20;;;;;;;;;;5075371;28;20040;-71
2024/01/13 04:30:27;;;;;;;11.90;3.88;;;;;;;;;;5075368;28;20045;-71
2024/01/13 04:32:53;;;;;;;7.97;3.15;;;;;;;;;;5076815;28;20037;-71
2024/01/13 04:35:19;;;;;;;11.77;4.22;;;;;;;;;;5075182;28;20447;-71
2024/01/13 04:37:45;;;;;;;8.70;3.55;;;;;;;;;;5075440;28;20048;-71
2024/01/13 04:40:11;;;;;;;12.77;3.75;;;;;;;;;;5076650;28;20037;-71
2024/01/13 04:42:37;;;;;;;12.23;3.90;;;;;;;;;;5075075;28;20048;-71
2024/01/13 04:45:03;;;;;;;9.63;3.20;;;;;;;;;;5074935;28;20113;-71
2024/01/13 04:47:29;;;;;;;8.25;3.50;;;;;;;;;;5076524;28;20505;-71
2024/01/13 04:49:55;;;;;;;9.73;3.70;;;;;;;;;;5074901;28;20421;-71
2024/01/13 04:52:21;;;;;;;11.65;4.10;;;;;;;;;;5058235;28;20040;-71
2024/01/13 04:54:47;;;;;;;12.15;3.85;;;;;;;;;;5075980;28;20174;-71
2024/01/13 04:57:13;;;;;;;8.27;3.55;;;;;;;;;;5076351;28;20044;-71
2024/01/13 04:59:39;;;;;;;14.75;3.90;;;;;;;;;;5075039;28;20107;-71
2024/01/13 05:02:05;;;;;;;8.48;3.67;;;;;;;;;;5058102;28;20448;-71
2024/01/13 05:04:31;;;;;;;9.57;3.20;;;;;;;;;;5074544;28;20127;-71
2024/01/13 05:06:57;;;;;;;8.82;3.20;;;;;;;;;;5076186;28;20040;-71
2024/01/13 05:09:23;;;;;;;14.50;3.50;;;;;;;;;;5074626;28;20033;-71
2024/01/13 05:11:49;;;;;;;7.03;2.85;;;;;;;;;;5074626;28;20119;-71
2024/01/13 05:14:16;;;;;;;6.80;3.17;;;;;;;;;;5075973;28;20119;-71
2024/01/13 05:16:42;;;;;;;5.53;2.65;;;;;;;;;;5075708;28;20412;-71
2024/01/13 05:19:09;;;;;;;10.35;3.15;;;;;;;;;;5076003;28;20040;-71
2024/01/13 05:21:35;;;;;;;6.95;3.17;;;;;;;;;;5075952;28;20051;-71
2024/01/13 05:24:01;;;;;;;7.22;3.22;;;;;;;;;;5075738;28;20127;-71
2024/01/13 05:26:27;;;;;;;6.03;2.42;;;;;;;;;;5075370;28;20063;-71
2024/01/13 05:28:53;;;;;;;5.72;2.60;;;;;;;;;;5074279;28;20095;-71
2024/01/13 05:31:19;;;;;;;6.28;3.00;;;;;;;;;;5075745;28;20119;-71
2024/01/13 05:33:45;;;;;;;7.65;2.33;;;;;;;;;;5074072;28;20041;-71
2024/01/13 05:36:11;;;;;;;6.75;2.25;;;;;;;;;;5074122;28;20509;-71
2024/01/13 05:38:37;;;;;;;5.80;2.17;;;;;;;;;;5074063;28;20131;-71
2024/01/13 05:41:03;;;;;;;6.07;1.70;;;;;;;;;;5075606;28;20036;-71
2024/01/13 05:43:29;;;;;;;3.97;1.85;;;;;;;;;;5075355;28;20048;-71
2024/01/13 05:45:55;;;;;;;4.43;1.65;;;;;;;;;;5074198;28;20045;-71
2024/01/13 05:48:21;;;;;;;3.70;1.65;;;;;;;;;;5075450;28;20115;-71
2024/01/13 05:50:47;;;;;;;3.00;1.58;;;;;;;;;;5075068;28;20488;-71
2024/01/13 05:53:13;;;;;;;3.72;1.50;;;;;;;;;;5074067;28;20055;-71
2024/01/13 05:55:39;;;;;;;2.58;1.48;;;;;;;;;;5073793;28;20508;-71
2024/01/13 05:58:06;;;;;;;6.47;1.50;;;;;;;;;;5073766;28;20048;-71
2024/01/13 06:00:32;;;;;;;4.97;1.67;;;;;;;;;;5073676;28;20080;-71
2024/01/13 06:02:58;;;;;;;4.07;1.48;;;;;;;;;;5073452;28;20079;-71
2024/01/13 06:05:24;;;;;;;5.18;1.65;;;;;;;;;;5075065;28;20071;-71
2024/01/13 06:07:50;;;;;;;5.30;1.85;;;;;;;;;;5075144;28;20064;-71
2024/01/13 06:10:19;;;;;;;4.93;2.08;;;;;;;;;;5073508;28;20516;-71
2024/01/13 06:12:45;;;;;;;7.40;2.00;;;;;;;;;;5073434;28;20041;-71
2024/01/13 06:15:11;;;;;;;5.63;1.63;;;;;;;;;;5073566;28;20079;-71
2024/01/13 06:17:38;;;;;;;3.35;1.45;;;;;;;;;;5074813;28;20043;-71
2024/01/13 06:20:04;;;;;;;4.18;1.65;;;;;;;;;;5073313;28;20040;-71
2024/01/13 06:22:30;;;;;;;5.15;1.80;;;;;;;;;;5073503;28;20417;-71
2024/01/13 06:24:56;;;;;;;3.00;1.70;;;;;;;;;;5073010;28;20410;-71
2024/01/13 06:27:22;;;;;;;2.83;1.52;;;;;;;;;;5073125;28;20036;-71
2024/01/13 06:29:48;;;;;;;4.90;2.08;;;;;;;;;;5074598;28;20036;-71
2024/01/13 06:32:14;;;;;;;4.20;1.60;;;;;;;;;;5073067;28;20090;-71
2024/01/13 06:34:40;;;;;;;2.58;1.45;;;;;;;;;;5073620;28;20052;-71
2024/01/13 06:37:06;;;;;;;2.85;1.50;;;;;;;;;;5072100;28;20390;-71
2024/01/13 06:39:32;;;;;;;4.85;1.60;;;;;;;;;;5074430;28;20043;-71
2024/01/13 06:41:58;;;;;;;4.68;1.92;;;;;;;;;;5074343;28;20044;-71
2024/01/13 06:44:25;;;;;;;6.00;1.73;;;;;;;;;;5072771;28;20048;-71
2024/01/13 06:46:51;;;;;;;4.25;1.85;;;;;;;;;;5072725;28;20048;-71
2024/01/13 06:49:17;;;;;;;5.63;1.40;;;;;;;;;;5072696;28;20040;-71
2024/01/13 06:51:43;;;;;;;3.67;1.75;;;;;;;;;;5074170;28;20044;-71
2024/01/13 06:54:09;;;;;;;3.63;1.67;;;;;;;;;;5072531;28;20119;-71
2024/01/13 06:56:36;;;;;;;6.10;1.80;;;;;;;;;;5074076;28;20207;-71
2024/01/13 06:59:02;;;;;;;4.18;1.92;;;;;;;;;;5073751;28;20416;-71
2024/01/13 07:01:28;;;;;;;3.25;1.60;;;;;;;;;;5072495;28;20052;-71
2024/01/13 07:03:54;;;;;;;3.42;1.80;;;;;;;;;;5072210;28;20044;-71
2024/01/13 07:06:20;;;;;;;4.57;1.90;;;;;;;;;;5073895;28;20044;-71
2024/01/13 07:08:46;;;;;;;4.93;1.90;;;;;;;;;;5072630;28;20037;-71
2024/01/13 07:11:13;;;;;;;5.60;1.70;;;;;;;;;;5073854;28;20032;-71
2024/01/13 07:13:41;;;;;;;7.05;2.13;;;;;;;;;;5072162;28;20509;-71
2024/01/13 07:16:07;;;;;;;7.22;2.17;;;;;;;;;;5073438;28;20620;-71
2024/01/13 07:18:33;;;;;;;4.20;2.00;;;;;;;;;;5073937;28;20041;-71
2024/01/13 07:20:59;;;;;;;4.00;1.80;;;;;;;;;;5072134;28;20046;-71
2024/01/13 07:23:25;;;;;;;4.20;1.92;;;;;;;;;;5073501;28;20044;-71
2024/01/13 07:25:51;;;;;;;4.35;2.00;;;;;;;;;;5072101;28;20416;-71
2024/01/13 07:28:17;;;;;;;4.13;1.90;;;;;;;;;;5073588;28;20068;-71
2024/01/13 07:30:43;;;;;;;3.63;2.05;;;;;;;;;;5073564;28;20477;-71
2024/01/13 07:33:09;;;;;;;8.18;2.10;;;;;;;;;;5073212;28;20045;-71
2024/01/13 07:35:38;;;;;;;5.57;2.58;;;;;;;;;;5071874;28;20463;-71
2024/01/13 07:38:04;;;;;;;5.28;2.35;;;;;;;;;;5071959;28;20052;-71
2024/01/13 07:40:30;;;;;;;4.95;2.50;;;;;;;;;;5071908;28;20040;-71
2024/01/13 07:42:56;;;;;;;5.05;2.00;;;;;;;;;;5073703;28;20116;-71
2024/01/13 07:45:22;;;;;;;8.73;2.28;;;;;;;;;;5071712;28;20516;-71
2024/01/13 07:47:49;;;;;;;7.50;2.25;;;;;;;;;;5071924;28;20045;-71
2024/01/13 07:50:15;;;;;;;4.57;1.85;;;;;;;;;;5071793;28;20079;-71
2024/01/13 07:52:41;;;;;;;3.55;1.80;;;;;;;;;;5072117;28;20037;-71
2024/01/13 07:55:07;;;;;;;4.38;1.85;;;;;;;;;;5073185;28;20135;-71
2024/01/13 07:57:35;;;;;;;3.42;1.80;;;;;;;;;;5073235;28;20044;-71
2024/01/13 08:00:01;;;;;;;3.58;1.50;;;;;;;;;;5073272;28;20037;-71
2024/01/13 08:02:27;;;;;;;3.10;1.58;;;;;;;;;;5073261;28;20151;-71
2024/01/13 08:04:53;;;;;;;4.72;1.50;;;;;;;;;;5071434;28;20094;-71
2024/01/13 08:07:21;;;;;;;2.47;1.52;;;;;;;;;;5071651;28;20032;-71
2024/01/13 08:09:47;;;;;;;1.70;1.25;;;;;;;;;;5071603;28;20052;-71
2024/01/13 08:12:14;;;;;;;4.80;1.80;;;;;;;;;;5071868;28;20051;-71
2024/01/13 08:14:40;;;;;;;4.47;2.10;;;;;;;;;;5073033;28;20048;-71
2024/01/13 08:17:07;;;;;;;3.28;1.65;;;;;;;;;;5071570;28;20052;-71
2024/01/13 08:19:33;;;;;;;6.88;2.65;;;;;;;;;;5071553;28;20056;-71
2024/01/13 08:21:59;;;;;;;6.70;3.03;;;;;;;;;;5071769;28;20048;-71
2024/01/13 08:24:25;;;;;;;5.35;2.65;;;;;;;;;;5071287;28;20080;-71
2024/01/13 08:26:52;;;;;;;8.23;3.80;;;;;;;;;;5071453;28;20048;-71
2024/01/13 08:29:18;;;;;;;8.05;4.72;;;;;;;;;;5072910;28;20090;-71
2024/01/13 08:31:47;;;;;;;10.02;5.30;;;;;;;;;;5073010;28;20033;-71
2024/01/13 08:34:13;;;;;;;12.13;6.20;;;;;;;;;;5071410;28;20501;-71
2024/01/13 08:36:41;;;;;;;15.60;8.27;;;;;;;;;;5072911;28;20041;-71
2024/01/13 08:39:07;;;;;;;13.25;8.00;;;;;;;;;;5072924;28;20041;-71
2024/01/13 08:41:33;;;;;;;14.90;9.73;;;;;;;;;;5071515;28;20512;-71
2024/01/13 08:43:59;;;;;;;17.63;9.98;;;;;;;;;;5071208;28;20125;-71
2024/01/13 08:46:26;;;;;;;19.38;9.52;;;;;;;;;;5054627;28;20094;-71
2024/01/13 08:48:52;;;;;;;16.80;10.38;;;;;;;;;;5071342;28;20111;-71
2024/01/13 08:51:18;;;;;;;19.58;10.57;;;;;;;;;;5072781;28;20171;-71
2024/01/13 08:53:47;;;;;;;22.27;12.38;;;;;;;;;;5072772;28;20040;-71
2024/01/13 08:56:17;;;;;;;25.90;14.18;;;;;;;;;;5071516;28;20040;-71
2024/01/13 08:58:43;;;;;;;31.88;15.63;;;;;;;;;;5072680;28;20115;-71
2024/01/13 09:01:09;;;;;;;33.20;17.08;;;;;;;;;;5075167;28;20125;-71
2024/01/13 09:03:35;;;;;;;35.03;17.83;;;;;;;;;;5075998;28;20041;-71
2024/01/13 09:06:01;;;;;;;30.95;18.35;;;;;;;;;;5076279;28;20036;-71
2024/01/13 09:08:27;;;;;;;34.58;20.33;;;;;;;;;;5075009;28;20040;-71
2024/01/13 09:10:53;;;;;;;39.97;22.90;;;;;;;;;;5058052;28;20382;-71
2024/01/13 09:13:19;;;;;;;36.75;21.13;;;;;;;;;;5074592;28;20040;-73
2024/01/13 09:15:45;;;;;;;40.45;22.60;;;;;;;;;;5074882;28;20041;-71
2024/01/13 09:18:11;;;;;;;45.45;24.55;;;;;;;;;;5074590;28;20083;-71
2024/01/13 09:20:37;;;;;;;40.47;24.15;;;;;;;;;;5074532;28;20119;-71
2024/01/13 09:23:03;;;;;;;41.95;25.40;;;;;;;;;;5076427;28;20033;-71
2024/01/13 09:25:29;;;;;;;41.97;27.05;;;;;;;;;;5074273;28;20466;-71
2024/01/13 09:27:55;;;;;;;49.85;28.25;;;;;;;;;;5075926;28;20119;-71
2024/01/13 09:30:22;;;;;;;46.72;27.35;;;;;;;;;;5057838;28;20098;-71
2024/01/13 09:32:48;;;;;;;53.92;28.83;;;;;;;;;;5075880;28;20102;-71
2024/01/13 09:35:14;;;;;;;49.95;29.63;;;;;;;;;;5074387;28;20076;-71
2024/01/13 09:37:40;;;;;;;53.30;31.05;;;;;;;;;;5074228;28;20050;-71
2024/01/13 09:40:06;;;;;;;49.15;29.52;;;;;;;;;;5074479;28;20082;-71
2024/01/13 09:42:48;;;;;;;57.42;31.52;;;;;;;;;;5075685;28;20044;-71
2024/01/13 09:45:14;;;;;;;54.67;31.48;;;;;;;;;;5075485;28;20044;-71
2024/01/13 09:47:43;;;;;;;48.92;32.35;;;;;;;;;;5074271;28;20087;-71
2024/01/13 09:50:09;;;;;;;56.03;33.13;;;;;;;;;;5073964;28;20045;-71
2024/01/13 09:52:35;;;;;;;63.22;36.58;;;;;;;;;;5075421;28;20083;-71
2024/01/13 09:55:03;;;;;;;55.63;36.05;;;;;;;;;;5075327;28;20048;-71
2024/01/13 09:57:29;;;;;;;59.85;35.35;;;;;;;;;;5073794;28;20056;-71
2024/01/13 09:59:55;;;;;;;55.83;35.92;;;;;;;;;;5073999;28;20477;-71
2024/01/13 10:02:21;;;;;;;60.42;36.35;;;;;;;;;;5075259;28;20051;-71
2024/01/13 10:04:47;;;;;;;56.22;36.33;;;;;;;;;;5073407;28;20496;-71
2024/01/13 10:07:14;;;;;;;55.67;35.05;;;;;;;;;;5073624;28;20048;-71
2024/01/13 10:09:40;;;;;;;57.15;35.33;;;;;;;;;;5073835;28;20051;-71
2024/01/13 10:12:07;;;;;;;53.65;36.03;;;;;;;;;;5073728;28;20046;-71
2024/01/13 10:14:38;;;;;;;55.25;36.47;;;;;;;;;;5073362;28;20048;-71
2024/01/13 10:17:04;;;;;;;52.15;34.58;;;;;;;;;;5074971;28;20045;-71
2024/01/13 10:19:30;;;;;;;53.63;35.60;;;;;;;;;;5074843;28;20071;-71
2024/01/13 10:21:57;;;;;;;55.10;34.88;;;;;;;;;;5073330;28;20053;-71
2024/01/13 10:24:23;;;;;;;57.88;35.10;;;;;;;;;;5073256;28;20485;-71
2024/01/13 10:26:49;;;;;;;54.17;35.65;;;;;;;;;;5073558;28;20076;-71
2024/01/13 10:29:15;;;;;;;53.05;35.20;;;;;;;;;;5074421;28;20493;-71
2024/01/13 10:31:41;;;;;;;56.47;35.00;;;;;;;;;;5073074;28;20041;-71
2024/01/13 10:34:10;;;;;;;59.10;35.42;;;;;;;;;;5073276;28;20041;-71
2024/01/13 10:36:37;;;;;;;53.80;34.33;;;;;;;;;;5074524;28;20048;-71
2024/01/13 10:39:03;;;;;;;52.22;33.30;;;;;;;;;;5074500;28;20119;-71
2024/01/13 10:41:29;;;;;;;49.58;33.20;;;;;;;;;;5074476;28;20123;-73
2024/01/13 10:43:56;;;;;;;48.95;34.20;;;;;;;;;;5074273;28;20544;-71
2024/01/13 10:46:22;;;;;;;47.40;32.90;;;;;;;;;;5056148;28;20390;-72
2024/01/13 10:48:51;;;;;;;53.83;33.70;;;;;;;;;;5074328;28;20040;-72
2024/01/13 10:51:17;;;;;;;47.78;32.17;;;;;;;;;;5074311;28;20508;-72
2024/01/13 10:53:44;;;;;;;47.25;32.15;;;;;;;;;;5072869;28;20041;-72
2024/01/13 10:56:11;;;;;;;44.65;32.63;;;;;;;;;;5074152;28;20041;-72
2024/01/13 10:58:37;;;;;;;44.55;31.25;;;;;;;;;;5074090;28;20044;-71
2024/01/13 11:01:03;;;;;;;42.47;32.08;;;;;;;;;;5073886;28;20557;-71
2024/01/13 11:03:31;;;;;;;43.67;31.67;;;;;;;;;;5072602;28;20045;-71
2024/01/13 11:05:57;;;;;;;49.20;31.85;;;;;;;;;;5074030;28;20039;-71
2024/01/13 11:08:23;;;;;;;46.35;30.88;;;;;;;;;;5073957;28;20401;-71
2024/01/13 11:10:51;;;;;;;48.78;31.33;;;;;;;;;;5072397;28;20040;-71
2024/01/13 11:13:27;;;;;;;46.85;32.30;;;;;;;;;;5072285;28;20552;-72
2024/01/13 11:16:04;;;;;;;51.33;32.03;;;;;;;;;;5055638;28;20041;-72
2024/01/13 11:18:37;;;;;;;50.47;32.90;;;;;;;;;;5073802;28;20037;-72
2024/01/13 11:21:04;;;;;;;48.55;32.83;;;;;;;;;;5073784;28;20040;-72
2024/01/13 11:23:36;;;;;;;50.47;33.85;;;;;;;;;;5071890;28;20557;-71
2024/01/13 11:26:02;;;;;;;56.35;35.13;;;;;;;;;;5073966;28;20090;-71
2024/01/13 11:28:42;;;;;;;55.58;34.05;;;;;;;;;;5072345;28;20500;-72
2024/01/13 11:31:11;;;;;;;52.88;34.40;;;;;;;;;;5072102;28;20036;-71
2024/01/13 11:33:37;;;;;;;52.17;33.33;;;;;;;;;;5073498;28;20078;-72
2024/01/13 11:36:04;;;;;;;56.15;34.08;;;;;;;;;;5073753;28;20045;-72
2024/01/13 11:38:32;;;;;;;50.30;32.22;;;;;;;;;;5072245;28;20109;-72
2024/01/13 11:40:58;;;;;;;49.35;31.20;;;;;;;;;;5072211;28;20052;-71
2024/01/13 11:43:26;;;;;;;49.50;32.30;;;;;;;;;;5072235;28;20044;-71
2024/01/13 11:45:53;;;;;;;46.90;29.88;;;;;;;;;;5071948;28;20041;-71
2024/01/13 11:48:35;;;;;;;45.30;27.88;;;;;;;;;;5071899;28;20040;-71
2024/01/13 11:51:01;;;;;;;47.03;29.20;;;;;;;;;;5071844;28;20093;-72
2024/01/13 11:53:41;;;;;;;52.70;30.38;;;;;;;;;;5073290;28;20039;-72
2024/01/13 11:56:08;;;;;;;44.05;28.92;;;;;;;;;;5073031;28;20398;-71
2024/01/13 11:58:35;;;;;;;45.60;28.20;;;;;;;;;;5073182;28;20397;-71
2024/01/13 12:01:02;;;;;;;46.80;28.00;;;;;;;;;;5072048;28;20048;-71
2024/01/13 12:03:28;;;;;;;46.55;25.67;;;;;;;;;;5073253;28;20044;-71
2024/01/13 12:05:57;;;;;;;41.55;25.55;;;;;;;;;;5072513;28;20090;-71
2024/01/13 12:08:27;;;;;;;46.13;25.77;;;;;;;;;;5072014;28;20575;-71
2024/01/13 12:10:54;;;;;;;45.88;25.52;;;;;;;;;;5073248;28;20036;-71
2024/01/13 12:13:20;;;;;;;45.97;26.05;;;;;;;;;;5055116;28;20048;-71
2024/01/13 12:15:46;;;;;;;46.08;24.73;;;;;;;;;;5071960;28;20063;-71
2024/01/13 12:18:25;;;;;;;45.20;24.80;;;;;;;;;;5071598;28;20093;-72
2024/01/13 12:20:57;;;;;;;41.30;23.27;;;;;;;;;;5071889;28;20040;-71
2024/01/13 12:23:23;;;;;;;41.67;23.40;;;;;;;;;;5072953;28;20040;-71
2024/01/13 12:25:49;;;;;;;43.85;23.17;;;;;;;;;;5073036;28;20405;-71
2024/01/13 12:28:15;;;;;;;36.50;21.80;;;;;;;;;;5071670;28;20517;-71
2024/01/13 12:30:42;;;;;;;39.67;22.70;;;;;;;;;;5072996;28;20086;-71
2024/01/13 12:33:08;;;;;;;39.33;23.00;;;;;;;;;;5071466;28;20045;-71
2024/01/13 12:35:34;;;;;;;46.63;22.92;;;;;;;;;;5073046;28;20174;-71
2024/01/13 12:38:00;;;;;;;34.90;21.77;;;;;;;;;;5075358;28;20123;-71
2024/01/13 12:40:28;;;;;;;35.03;19.92;;;;;;;;;;5075604;28;20036;-71
2024/01/13 12:42:54;;;;;;;28.33;19.65;;;;;;;;;;5076760;28;20044;-71
2024/01/13 12:45:20;;;;;;;30.52;18.83;;;;;;;;;;5075177;28;20124;-71
2024/01/13 12:47:51;;;;;;;26.75;18.20;;;;;;;;;;5075086;28;20400;-71
2024/01/13 12:50:17;;;;;;;31.95;17.90;;;;;;;;;;5076650;28;20040;-71
2024/01/13 12:52:44;;;;;;;33.58;19.55;;;;;;;;;;5075045;28;20405;-72
2024/01/13 12:55:10;;;;;;;30.65;18.42;;;;;;;;;;5074877;28;20040;-71
2024/01/13 12:57:36;;;;;;;32.85;17.55;;;;;;;;;;5076488;28;20086;-72
2024/01/13 13:00:05;;;;;;;27.98;16.58;;;;;;;;;;5074944;28;20118;-72
2024/01/13 13:02:31;;;;;;;25.73;15.55;;;;;;;;;;5076372;28;20101;-72
2024/01/13 13:04:57;;;;;;;26.05;16.23;;;;;;;;;;5074587;28;20493;-72
2024/01/13 13:07:25;;;;;;;32.63;15.93;;;;;;;;;;5074800;28;20071;-72
2024/01/13 13:09:56;;;;;;;26.35;15.27;;;;;;;;;;5074663;28;20382;-72
2024/01/13 13:12:22;;;;;;;31.73;15.65;;;;;;;;;;5074934;28;20040;-72
2024/01/13 13:14:49;;;;;;;27.17;15.00;;;;;;;;;;5074779;28;20078;-72
2024/01/13 13:17:15;;;;;;;22.08;13.25;;;;;;;;;;5076163;28;20119;-72
2024/01/13 13:19:41;;;;;;;21.30;12.48;;;;;;;;;;5076081;28;20036;-72
2024/01/13 13:22:07;;;;;;;21.83;13.13;;;;;;;;;;5075729;28;20401;-71
2024/01/13 13:24:34;;;;;;;24.38;13.50;;;;;;;;;;5074329;28;20037;-72
2024/01/13 13:27:00;;;;;;;19.65;11.55;;;;;;;;;;5075920;28;20044;-71
2024/01/13 13:29:26;;;;;;;17.95;11.02;;;;;;;;;;5074381;28;20072;-71
2024/01/13 13:31:53;;;;;;;15.63;10.10;;;;;;;;;;5074570;28;20386;-71
2024/01/13 13:34:19;;;;;;;16.42;9.85;;;;;;;;;;5074221;28;20052;-71
2024/01/13 13:36:45;;;;;;;17.40;8.98;;;;;;;;;;5074477;28;20041;-71
2024/01/13 13:39:11;;;;;;;14.25;8.85;;;;;;;;;;5074760;28;20044;-71
2024/01/13 13:41:37;;;;;;;15.77;8.48;;;;;;;;;;5075728;28;20386;-71
2024/01/13 13:44:03;;;;;;;14.13;8.00;;;;;;;;;;5074009;28;20036;-72
2024/01/13 13:46:30;;;;;;;13.95;7.82;;;;;;;;;;5075232;28;20083;-72
2024/01/13 13:48:56;;;;;;;12.07;7.72;;;;;;;;;;5075526;28;20115;-73
2024/01/13 13:51:21;;;;;;;11.35;7.50;;;;;;;;;;5075562;28;20044;-73
2024/01/13 13:53:47;;;;;;;14.75;7.85;;;;;;;;;;5073848;28;20620;-73
2024/01/13 13:56:13;;;;;;;11.43;7.75;;;;;;;;;;5074180;28;20052;-73
2024/01/13 13:58:40;;;;;;;13.60;7.82;;;;;;;;;;5075375;28;20060;-72
2024/01/13 14:01:06;;;;;;;14.02;7.53;;;;;;;;;;5075313;28;20080;-71
2024/01/13 14:03:32;;;;;;;11.32;7.50;;;;;;;;;;5073852;28;20503;-71
2024/01/13 14:05:58;;;;;;;11.25;6.82;;;;;;;;;;5073722;28;20608;-73
2024/01/13 14:08:26;;;;;;;10.65;6.32;;;;;;;;;;5073802;28;20041;-73
2024/01/13 14:10:52;;;;;;;14.10;6.55;;;;;;;;;;5073597;28;20527;-74
2024/01/13 14:13:19;;;;;;;12.43;7.10;;;;;;;;;;5075093;28;20112;-74
2024/01/13 14:15:45;;;;;;;17.23;6.57;;;;;;;;;;5073542;28;20056;-74
2024/01/13 14:18:11;;;;;;;10.40;5.72;;;;;;;;;;5073491;28;20090;-74
2024/01/13 14:20:37;;;;;;;13.35;6.15;;;;;;;;;;5074918;28;20043;-74
2024/01/13 14:23:03;;;;;;;14.10;6.45;;;;;;;;;;5074857;28;20041;-73
2024/01/13 14:25:29;;;;;;;12.98;6.10;;;;;;;;;;5073150;28;20047;-73
2024/01/13 14:27:55;;;;;;;12.88;6.47;;;;;;;;;;5073536;28;20037;-73
2024/01/13 14:30:21;;;;;;;11.05;5.90;;;;;;;;;;5074383;28;20397;-74